createdAt,value
2023-05-02T00:04:14.710Z,33.53
2023-05-02T00:09:17.513Z,34.21
2023-05-02T00:14:33.080Z,34.76
2023-05-02T00:19:31.769Z,34.93
2023-05-02T00:24:30.424Z,34.69
2023-05-02T00:29:29.102Z,34.91
2023-05-02T00:34:32.184Z,35.00
2023-05-02T00:39:30.942Z,34.89
2023-05-02T00:44:30.066Z,34.69
2023-05-02T00:49:29.221Z,34.86
2023-05-02T00:54:29.924Z,35.09
2023-05-02T00:59:29.551Z,34.92
2023-05-02T01:04:40.538Z,35.14
2023-05-02T01:09:53.673Z,35.16
2023-05-02T01:14:56.792Z,34.86
2023-05-02T01:20:00.056Z,34.52
2023-05-02T01:25:10.336Z,34.43
2023-05-02T01:30:13.425Z,34.60
2023-05-02T01:35:12.791Z,35.13
2023-05-02T01:40:13.380Z,35.17
2023-05-02T01:45:15.300Z,35.61
2023-05-02T01:50:17.950Z,36.21
2023-05-02T01:55:18.835Z,36.66
2023-05-02T02:00:20.852Z,37.08
2023-05-02T02:05:23.688Z,37.96
2023-05-02T02:10:24.203Z,38.39
2023-05-02T02:15:29.249Z,38.47
2023-05-02T02:20:29.590Z,38.87
2023-05-02T02:25:28.809Z,39.52
2023-05-02T02:30:28.989Z,39.36
2023-05-02T02:35:32.822Z,39.09
2023-05-02T02:40:36.143Z,39.59
2023-05-02T02:45:44.845Z,39.39
2023-05-02T02:50:53.881Z,39.52
2023-05-02T02:55:59.432Z,39.67
2023-05-02T03:01:02.776Z,39.39
2023-05-02T03:06:02.005Z,38.89
2023-05-02T03:11:01.096Z,38.23
2023-05-02T03:16:40.490Z,39.01
2023-05-02T03:21:46.238Z,40.52
2023-05-02T03:26:50.252Z,40.68
2023-05-02T03:31:55.090Z,40.78
2023-05-02T03:36:56.736Z,41.50
2023-05-02T03:41:55.457Z,40.85
2023-05-02T03:46:56.220Z,42.76
2023-05-02T03:51:57.429Z,42.95
2023-05-02T03:57:01.803Z,43.96
2023-05-02T04:02:03.004Z,43.83
2023-05-02T04:07:22.398Z,43.34
2023-05-02T04:12:28.735Z,42.88
2023-05-02T04:17:31.153Z,42.07
2023-05-02T04:22:31.491Z,41.62
2023-05-02T04:27:35.179Z,41.37
2023-05-02T04:32:35.084Z,41.23
2023-05-02T04:37:38.151Z,40.72
2023-05-02T04:42:37.628Z,41.29
2023-05-02T04:47:52.340Z,40.89
2023-05-02T04:52:52.757Z,40.63
2023-05-02T04:57:52.863Z,40.32
2023-05-02T05:02:52.389Z,40.39
2023-05-02T05:07:52.682Z,40.52
2023-05-02T05:12:53.604Z,41.01
2023-05-02T05:17:53.218Z,41.18
2023-05-02T05:22:53.665Z,40.89
2023-05-02T05:27:55.334Z,41.08
2023-05-02T05:32:54.949Z,41.21
2023-05-02T05:37:55.150Z,40.92
2023-05-02T05:42:54.009Z,41.29
2023-05-02T05:47:58.263Z,41.65
2023-05-02T05:53:01.502Z,41.52
2023-05-02T05:58:00.454Z,41.16
2023-05-02T06:02:59.372Z,41.82
2023-05-02T06:08:05.201Z,41.25
2023-05-02T06:13:06.402Z,41.67
2023-05-02T06:18:08.701Z,41.10
2023-05-02T06:23:09.066Z,41.10
2023-05-02T06:28:09.581Z,40.88
2023-05-02T06:33:08.464Z,41.79
2023-05-02T06:38:08.538Z,40.94
2023-05-02T06:43:07.428Z,41.10
2023-05-02T06:48:06.585Z,40.73
2023-05-02T06:53:06.018Z,41.23
2023-05-02T06:58:06.123Z,40.60
2023-05-02T07:03:05.426Z,41.23
2023-05-02T07:08:05.864Z,41.30
2023-05-02T07:13:06.068Z,40.72
2023-05-02T07:18:05.245Z,41.17
2023-05-02T07:23:04.033Z,40.77
2023-05-02T07:28:02.835Z,39.86
2023-05-02T07:33:03.173Z,33.21
2023-05-02T07:38:01.985Z,32.16
2023-05-02T07:43:02.876Z,30.43
2023-05-02T07:48:04.041Z,29.84
2023-05-02T07:53:03.510Z,28.37
2023-05-02T07:58:02.419Z,27.95
2023-05-02T08:03:02.732Z,29.02
2023-05-02T08:08:02.069Z,28.00
2023-05-02T08:13:00.837Z,26.71
2023-05-02T08:17:59.962Z,24.46
2023-05-02T08:23:00.605Z,25.10
2023-05-02T08:27:59.460Z,32.76
2023-05-02T08:32:58.245Z,37.15
2023-05-02T08:37:57.175Z,34.44
2023-05-02T08:42:57.579Z,27.93
2023-05-02T08:47:58.088Z,27.97
2023-05-02T08:52:58.818Z,31.15
2023-05-02T08:57:59.699Z,30.47
2023-05-02T09:03:07.843Z,21.82
2023-05-02T09:08:07.007Z,23.43
2023-05-02T09:13:38.012Z,22.35
2023-05-02T09:18:37.790Z,18.62
2023-05-02T09:23:38.339Z,24.07
2023-05-02T09:28:43.276Z,17.43
2023-05-02T09:33:42.549Z,17.24
2023-05-02T09:38:44.677Z,15.04
2023-05-02T09:43:45.337Z,16.73
2023-05-02T09:48:54.755Z,18.64
2023-05-02T09:53:53.998Z,14.90
2023-05-02T09:59:13.749Z,14.29
2023-05-02T10:04:16.571Z,14.13
2023-05-02T10:09:20.807Z,13.98
2023-05-02T10:14:23.105Z,13.97
2023-05-02T10:19:30.341Z,12.50
2023-05-02T10:24:30.020Z,13.27
2023-05-02T10:29:31.040Z,13.01
2023-05-02T10:34:33.332Z,13.24
2023-05-02T10:39:33.757Z,12.86
2023-05-02T10:44:37.751Z,12.49
2023-05-02T10:49:51.292Z,12.43
2023-05-02T10:54:52.221Z,12.80
2023-05-02T10:59:52.327Z,11.84
2023-05-02T11:05:02.066Z,12.34
2023-05-02T11:10:29.327Z,11.00
2023-05-02T11:16:00.226Z,10.79
2023-05-02T11:21:27.564Z,11.26
2023-05-02T11:26:26.682Z,11.50
2023-05-02T11:32:04.125Z,11.88
2023-05-02T11:37:12.557Z,11.27
2023-05-02T11:42:11.286Z,11.05
2023-05-02T11:47:10.556Z,10.86
2023-05-02T11:52:10.997Z,11.13
2023-05-02T11:57:09.855Z,10.33
2023-05-02T12:02:08.802Z,10.46
2023-05-02T12:12:08.114Z,10.61
2023-05-02T12:17:06.946Z,10.95
2023-05-02T12:22:07.890Z,10.29
2023-05-02T12:27:12.527Z,11.57
2023-05-02T12:32:11.547Z,11.03
2023-05-02T12:37:11.891Z,10.85
2023-05-02T12:42:12.999Z,10.45
2023-05-02T12:47:13.216Z,10.67
2023-05-02T12:52:11.926Z,10.64
2023-05-02T12:57:11.969Z,9.77
2023-05-02T13:02:10.685Z,9.66
2023-05-02T13:07:09.436Z,9.66
2023-05-02T13:12:08.547Z,10.25
2023-05-02T13:17:09.980Z,9.32
2023-05-02T13:22:08.876Z,10.36
2023-05-02T13:27:07.522Z,9.81
2023-05-02T13:32:06.308Z,11.03
2023-05-02T13:37:06.502Z,10.99
2023-05-02T13:42:06.492Z,11.02
2023-05-02T13:47:05.236Z,10.97
2023-05-02T13:52:04.448Z,11.29
2023-05-02T13:57:05.621Z,11.03
2023-05-02T14:02:04.840Z,10.96
2023-05-02T14:07:04.317Z,11.08
2023-05-02T14:12:08.403Z,10.65
2023-05-02T14:17:07.091Z,10.72
2023-05-02T14:22:05.996Z,11.21
2023-05-02T14:27:06.890Z,10.81
2023-05-02T14:32:07.318Z,11.79
2023-05-02T14:37:06.196Z,12.00
2023-05-02T14:42:08.916Z,11.40
2023-05-02T14:47:09.163Z,11.12
2023-05-02T14:52:10.177Z,11.60
2023-05-02T14:57:09.122Z,11.73
2023-05-02T15:02:09.279Z,12.17
2023-05-02T15:07:08.481Z,10.84
2023-05-02T15:12:07.248Z,11.29
2023-05-02T15:17:08.653Z,12.24
2023-05-02T15:22:11.632Z,11.13
2023-05-02T15:27:11.311Z,11.95
2023-05-02T15:32:10.122Z,12.20
2023-05-02T15:37:10.272Z,12.90
2023-05-02T15:42:09.017Z,15.14
2023-05-02T15:47:08.540Z,13.47
2023-05-02T15:52:08.000Z,14.85
2023-05-02T15:57:08.232Z,15.56
2023-05-02T16:02:07.224Z,15.32
2023-05-02T16:07:06.246Z,15.33
2023-05-02T16:12:07.104Z,15.64
2023-05-02T16:17:08.316Z,16.25
2023-05-02T16:22:07.061Z,17.25
2023-05-02T16:27:05.797Z,17.70
2023-05-02T16:32:04.509Z,17.57
2023-05-02T16:37:05.124Z,17.69
2023-05-02T16:42:03.894Z,18.67
2023-05-02T16:47:02.801Z,19.13
2023-05-02T16:52:01.562Z,19.66
2023-05-02T16:57:03.268Z,19.68
2023-05-02T17:02:02.463Z,20.46
2023-05-02T17:07:01.510Z,20.88
2023-05-02T17:12:02.946Z,21.57
2023-05-02T17:17:02.214Z,21.82
2023-05-02T17:22:01.633Z,22.14
2023-05-02T17:27:02.914Z,22.48
2023-05-02T17:32:01.980Z,22.75
2023-05-02T17:37:00.777Z,22.90
2023-05-02T17:41:59.606Z,23.29
2023-05-02T17:47:00.082Z,23.61
2023-05-02T17:51:59.007Z,23.84
2023-05-02T17:56:58.203Z,24.14
2023-05-02T18:01:57.398Z,24.42
2023-05-02T18:06:57.616Z,24.46
2023-05-02T18:11:57.071Z,24.63
2023-05-02T18:16:56.500Z,24.73
2023-05-02T18:21:55.155Z,24.81
2023-05-02T18:26:55.444Z,24.94
2023-05-02T18:31:54.371Z,24.87
2023-05-02T18:36:53.080Z,25.30
2023-05-02T18:41:51.714Z,25.45
2023-05-02T18:46:52.009Z,25.77
2023-05-02T18:51:50.832Z,26.05
2023-05-02T18:56:49.580Z,26.01
2023-05-02T19:01:49.314Z,26.25
2023-05-02T19:06:49.501Z,26.93
2023-05-02T19:11:48.294Z,27.26
2023-05-02T19:16:47.148Z,27.14
2023-05-02T19:21:50.772Z,27.77
2023-05-02T19:26:49.777Z,28.42
2023-05-02T19:31:48.741Z,28.39
2023-05-02T19:36:47.493Z,28.74
2023-05-02T19:41:50.389Z,28.88
2023-05-02T19:46:49.336Z,29.44
2023-05-02T19:51:49.374Z,30.21
2023-05-02T19:56:49.594Z,29.84
2023-05-02T20:01:48.720Z,30.05
2023-05-02T20:06:47.478Z,30.68
2023-05-02T20:11:46.172Z,30.75
2023-05-02T20:16:47.037Z,30.75
2023-05-02T20:21:45.825Z,31.53
2023-05-02T20:26:44.518Z,31.72
2023-05-02T20:31:43.517Z,31.67
2023-05-02T20:36:43.733Z,31.06
2023-05-02T20:41:42.474Z,30.99
2023-05-02T20:46:41.287Z,31.04
2023-05-02T20:51:40.083Z,30.99
2023-05-02T20:56:40.897Z,31.87
2023-05-02T21:01:39.888Z,32.24
2023-05-02T21:06:38.885Z,32.22
2023-05-02T21:11:37.624Z,32.07
2023-05-02T21:16:37.897Z,31.85
2023-05-02T21:21:36.559Z,31.72
2023-05-02T21:26:35.326Z,31.40
2023-05-02T21:31:34.252Z,31.07
2023-05-02T21:36:34.370Z,30.62
2023-05-02T21:41:33.068Z,30.25
2023-05-02T21:46:31.806Z,30.66
2023-05-02T21:51:30.749Z,31.53
2023-05-02T21:56:30.857Z,31.78
2023-05-02T22:01:29.709Z,31.90
2023-05-02T22:06:28.711Z,32.17
2023-05-02T22:11:31.523Z,32.38
2023-05-02T22:16:30.186Z,32.81
2023-05-02T22:21:29.028Z,33.05
2023-05-02T22:26:27.800Z,33.00
2023-05-02T22:31:27.988Z,32.72
2023-05-02T22:36:27.847Z,33.07
2023-05-02T22:41:26.536Z,32.97
2023-05-02T22:46:25.287Z,33.37
2023-05-02T22:51:25.726Z,32.94
2023-05-02T22:56:24.638Z,32.81
2023-05-02T23:01:23.489Z,33.21
2023-05-02T23:06:22.289Z,33.21
2023-05-02T23:11:22.489Z,32.63
2023-05-02T23:16:21.344Z,32.99
2023-05-02T23:21:20.137Z,33.37
2023-05-02T23:26:18.947Z,33.54
2023-05-02T23:31:19.100Z,34.02
2023-05-02T23:36:18.152Z,34.38
2023-05-02T23:41:16.819Z,34.47
2023-05-02T23:46:15.521Z,34.97
2023-05-02T23:51:15.577Z,35.22
2023-05-02T23:56:14.328Z,35.37
